Time;durP1;ratioP1;P1;durP2;ratioP2;P2;SDS_P1;SDS_P2;PMS_P1;PMS_P2;Temp;Humidity;BMP_temperature;BMP_pressure;BME280_temperature;BME280_humidity;BME280_pressure;Samples;Min_cycle;Max_cycle;Signal;HPM_P1;HPM_P2
2022/10/23 00:01:18;;;;;;;8.93;8.27;;;;;;;;;;4997270;28;20030;-60
2022/10/23 00:03:44;;;;;;;9.15;8.45;;;;;;;;;;4994700;28;20049;-61
2022/10/23 00:06:11;;;;;;;8.55;8.02;;;;;;;;;;4995764;28;20026;-61
2022/10/23 00:08:37;;;;;;;8.50;8.00;;;;;;;;;;4995102;28;20262;-61
2022/10/23 00:11:14;;;;;;;8.10;7.60;;;;;;;;;;4997439;28;20254;-61
2022/10/23 00:13:40;;;;;;;9.13;8.52;;;;;;;;;;4994885;28;20029;-61
2022/10/23 00:16:06;;;;;;;10.32;9.63;;;;;;;;;;4995403;28;20444;-60
2022/10/23 00:18:31;;;;;;;8.35;7.75;;;;;;;;;;4994631;28;20233;-61
2022/10/23 00:20:57;;;;;;;9.10;8.50;;;;;;;;;;4995272;28;20057;-61
2022/10/23 00:23:22;;;;;;;9.23;8.63;;;;;;;;;;4994667;28;20141;-61
2022/10/23 00:25:47;;;;;;;8.43;7.93;;;;;;;;;;5003230;28;20033;-60
2022/10/23 00:28:13;;;;;;;8.15;7.65;;;;;;;;;;4996079;28;20476;-61
2022/10/23 00:30:38;;;;;;;8.48;7.93;;;;;;;;;;4996924;28;20586;-60
2022/10/23 00:33:04;;;;;;;11.25;8.30;;;;;;;;;;4998478;28;20036;-60
2022/10/23 00:35:29;;;;;;;9.75;9.05;;;;;;;;;;4996674;28;20030;-61
2022/10/23 00:37:54;;;;;;;8.88;8.27;;;;;;;;;;4995344;28;20460;-61
2022/10/23 00:40:20;;;;;;;8.23;7.72;;;;;;;;;;4995675;28;20351;-61
2022/10/23 00:42:45;;;;;;;8.60;8.00;;;;;;;;;;4998299;28;20030;-61
2022/10/23 00:45:20;;;;;;;8.13;7.63;;;;;;;;;;4995440;28;20034;-60
2022/10/23 00:47:46;;;;;;;9.02;8.43;;;;;;;;;;4994997;28;20038;-60
2022/10/23 00:50:12;;;;;;;8.65;8.05;;;;;;;;;;4996505;28;20334;-60
2022/10/23 00:52:45;;;;;;;9.43;8.60;;;;;;;;;;4993528;28;20438;-60
2022/10/23 00:55:12;;;;;;;19.80;9.38;;;;;;;;;;4994326;28;20030;-61
2022/10/23 00:57:41;;;;;;;9.00;8.40;;;;;;;;;;4992967;28;20088;-61
2022/10/23 01:00:07;;;;;;;9.27;8.68;;;;;;;;;;4995117;28;20476;-60
2022/10/23 01:02:33;;;;;;;9.65;9.05;;;;;;;;;;4995505;28;20672;-60
2022/10/23 01:04:58;;;;;;;9.77;9.18;;;;;;;;;;4994331;28;20120;-61
2022/10/23 01:07:32;;;;;;;9.80;9.10;;;;;;;;;;4993424;28;20030;-61
2022/10/23 01:10:33;;;;;;;10.15;9.45;;;;;;;;;;4996955;28;20040;-62
2022/10/23 01:13:05;;;;;;;9.35;8.55;;;;;;;;;;4990574;28;20353;-61
2022/10/23 01:15:43;;;;;;;9.65;9.05;;;;;;;;;;4994838;28;20538;-61
2022/10/23 01:18:19;;;;;;;8.32;7.82;;;;;;;;;;5008521;28;20406;-61
2022/10/23 01:21:03;;;;;;;9.65;9.05;;;;;;;;;;4994294;28;20269;-61
2022/10/23 01:23:42;;;;;;;8.52;8.02;;;;;;;;;;4996891;28;20061;-61
2022/10/23 01:26:34;;;;;;;9.70;9.10;;;;;;;;;;4994181;28;20049;-61
2022/10/23 01:29:18;;;;;;;8.90;8.30;;;;;;;;;;4994831;28;20344;-61
2022/10/23 01:32:09;;;;;;;8.27;7.78;;;;;;;;;;4994656;28;20076;-61
2022/10/23 01:34:34;;;;;;;;;;;;;;;;;;4994941;28;20059;-61
2022/10/23 01:37:02;;;;;;;7.72;7.22;;;;;;;;;;4997701;28;20302;-60
2022/10/23 01:39:41;;;;;;;9.07;8.48;;;;;;;;;;4993546;28;20038;-60
2022/10/23 01:42:23;;;;;;;9.13;8.52;;;;;;;;;;4993899;28;20293;-60
2022/10/23 01:44:58;;;;;;;7.97;7.47;;;;;;;;;;4994147;28;20025;-61
2022/10/23 01:47:27;;;;;;;8.23;7.72;;;;;;;;;;4998030;28;20057;-61
2022/10/23 01:49:54;;;;;;;7.85;7.35;;;;;;;;;;5032016;28;20034;-61
2022/10/23 01:52:20;;;;;;;8.13;7.63;;;;;;;;;;5000374;28;20037;-61
2022/10/23 01:54:48;;;;;;;8.95;8.35;;;;;;;;;;4995415;28;20056;-61
2022/10/23 01:57:17;;;;;;;9.90;9.20;;;;;;;;;;4998935;28;20748;-61
2022/10/23 01:59:54;;;;;;;9.35;8.75;;;;;;;;;;4997128;28;20029;-61
2022/10/23 02:02:23;;;;;;;9.13;8.52;;;;;;;;;;4996555;28;20124;-59
2022/10/23 02:05:00;;;;;;;9.73;9.13;;;;;;;;;;4997540;28;20026;-59
2022/10/23 02:07:26;;;;;;;9.40;8.80;;;;;;;;;;4997241;28;20467;-59
2022/10/23 02:09:52;;;;;;;11.07;10.38;;;;;;;;;;4996273;28;20031;-59
2022/10/23 02:12:48;;;;;;;10.30;9.57;;;;;;;;;;4996203;28;20042;-59
2022/10/23 02:15:27;;;;;;;9.55;8.95;;;;;;;;;;4994751;28;20088;-59
2022/10/23 02:18:06;;;;;;;10.45;9.85;;;;;;;;;;4993528;28;20041;-59
2022/10/23 02:20:39;;;;;;;9.80;9.18;;;;;;;;;;4997277;28;20507;-59
2022/10/23 02:23:15;;;;;;;9.48;8.88;;;;;;;;;;4996780;28;20057;-59
2022/10/23 02:25:52;;;;;;;9.82;9.07;;;;;;;;;;4994562;28;20470;-59
2022/10/23 02:28:24;;;;;;;12.07;10.82;;;;;;;;;;5011476;28;20042;-59
2022/10/23 02:30:50;;;;;;;11.20;10.50;;;;;;;;;;4995662;28;20081;-59
2022/10/23 02:33:17;;;;;;;10.50;9.80;;;;;;;;;;4999132;28;20057;-59
2022/10/23 02:35:42;;;;;;;9.55;8.95;;;;;;;;;;4996576;28;20168;-59
2022/10/23 02:38:34;;;;;;;9.52;8.93;;;;;;;;;;4998291;28;20534;-59
2022/10/23 02:41:14;;;;;;;9.35;8.75;;;;;;;;;;4997440;28;20100;-59
2022/10/23 02:43:49;;;;;;;9.77;9.07;;;;;;;;;;4997088;28;20037;-59
2022/10/23 02:46:36;;;;;;;9.48;8.88;;;;;;;;;;4996923;28;20548;-59
2022/10/23 02:49:12;;;;;;;9.77;9.18;;;;;;;;;;4996681;28;20042;-59
2022/10/23 02:52:16;;;;;;;9.50;8.90;;;;;;;;;;4997042;28;20418;-59
2022/10/23 02:55:07;;;;;;;8.95;8.35;;;;;;;;;;4982136;28;20473;-59
2022/10/23 02:57:43;;;;;;;9.27;8.68;;;;;;;;;;5012021;28;20058;-59
2022/10/23 03:00:18;;;;;;;10.85;10.15;;;;;;;;;;4992927;28;20034;-59
2022/10/23 03:02:57;;;;;;;10.40;9.40;;;;;;;;;;4995218;28;20318;-59
2022/10/23 03:05:27;;;;;;;9.98;9.27;;;;;;;;;;4996488;28;20037;-59
2022/10/23 03:07:53;;;;;;;9.60;9.00;;;;;;;;;;4996456;28;20037;-59
2022/10/23 03:10:19;;;;;;;11.07;9.98;;;;;;;;;;4997079;28;20039;-59
2022/10/23 03:12:45;;;;;;;10.52;9.82;;;;;;;;;;4995322;28;20365;-59
2022/10/23 03:15:11;;;;;;;10.65;9.95;;;;;;;;;;4992167;28;20483;-59
2022/10/23 03:17:37;;;;;;;12.10;11.13;;;;;;;;;;4995635;28;20362;-59
2022/10/23 03:20:04;;;;;;;11.60;10.90;;;;;;;;;;4996879;28;20303;-59
2022/10/23 03:22:29;;;;;;;11.00;10.30;;;;;;;;;;4996318;28;20077;-59
2022/10/23 03:24:55;;;;;;;10.55;9.90;;;;;;;;;;4995165;28;20047;-59
2022/10/23 03:27:20;;;;;;;10.18;9.55;;;;;;;;;;4995320;28;20041;-59
2022/10/23 03:29:46;;;;;;;12.73;11.93;;;;;;;;;;5004059;28;20036;-59
2022/10/23 03:32:11;;;;;;;10.93;10.23;;;;;;;;;;4994556;28;20206;-59
2022/10/23 03:34:36;;;;;;;10.25;9.63;;;;;;;;;;4993106;28;20068;-59
2022/10/23 03:37:02;;;;;;;9.85;9.25;;;;;;;;;;4997615;28;20348;-59
2022/10/23 03:39:27;;;;;;;10.73;10.02;;;;;;;;;;4995062;28;20038;-59
2022/10/23 03:41:52;;;;;;;10.23;9.63;;;;;;;;;;4994410;28;20057;-60
2022/10/23 03:44:18;;;;;;;10.15;9.55;;;;;;;;;;4994370;28;20122;-60
2022/10/23 03:46:43;;;;;;;9.82;9.23;;;;;;;;;;4994531;28;20061;-59
2022/10/23 03:49:09;;;;;;;9.07;8.48;;;;;;;;;;4994620;28;20034;-60
2022/10/23 03:51:34;;;;;;;9.32;8.65;;;;;;;;;;4996707;28;20038;-60
2022/10/23 03:54:00;;;;;;;11.75;10.77;;;;;;;;;;4993099;28;20049;-60
2022/10/23 03:56:25;;;;;;;9.98;9.27;;;;;;;;;;4996510;28;20109;-60
2022/10/23 03:58:50;;;;;;;9.30;8.70;;;;;;;;;;4996203;28;20432;-60
2022/10/23 04:01:16;;;;;;;11.25;10.55;;;;;;;;;;4997266;28;20109;-60
2022/10/23 04:03:41;;;;;;;9.93;9.23;;;;;;;;;;4993534;28;20653;-60
2022/10/23 04:06:07;;;;;;;9.45;8.85;;;;;;;;;;4992521;28;20164;-60
2022/10/23 04:08:32;;;;;;;9.05;8.45;;;;;;;;;;4996693;28;20033;-60
2022/10/23 04:10:57;;;;;;;10.85;10.15;;;;;;;;;;4999605;28;20428;-60
2022/10/23 04:13:23;;;;;;;10.40;9.70;;;;;;;;;;4996792;28;20516;-60
2022/10/23 04:15:50;;;;;;;8.93;8.32;;;;;;;;;;4994165;28;20214;-60
2022/10/23 04:18:16;;;;;;;9.65;9.05;;;;;;;;;;4994941;28;20026;-60
2022/10/23 04:20:41;;;;;;;10.10;9.50;;;;;;;;;;4995717;28;20030;-60
2022/10/23 04:23:07;;;;;;;9.32;8.70;;;;;;;;;;4993872;28;20042;-60
2022/10/23 04:25:32;;;;;;;9.40;8.80;;;;;;;;;;4990445;28;20030;-62
2022/10/23 04:27:57;;;;;;;9.88;9.27;;;;;;;;;;4997284;28;20120;-63
2022/10/23 04:30:23;;;;;;;9.75;9.15;;;;;;;;;;4992556;28;20535;-63
2022/10/23 04:32:52;;;;;;;11.95;10.95;;;;;;;;;;5025472;28;20026;-63
2022/10/23 04:35:18;;;;;;;11.05;10.35;;;;;;;;;;4997100;28;20038;-62
2022/10/23 04:37:44;;;;;;;11.45;9.95;;;;;;;;;;4998180;28;20064;-63
2022/10/23 04:40:10;;;;;;;9.93;9.27;;;;;;;;;;5006002;28;20267;-62
2022/10/23 04:42:35;;;;;;;9.82;9.13;;;;;;;;;;4993950;28;20034;-60
2022/10/23 04:45:00;;;;;;;9.63;8.93;;;;;;;;;;4991410;28;20030;-61
2022/10/23 04:47:26;;;;;;;10.13;9.43;;;;;;;;;;4990137;28;20412;-60
2022/10/23 04:49:51;;;;;;;10.98;9.93;;;;;;;;;;4993546;28;20033;-60
2022/10/23 04:52:16;;;;;;;10.20;9.13;;;;;;;;;;4993723;28;20129;-61
2022/10/23 04:54:42;;;;;;;9.73;9.13;;;;;;;;;;4993827;28;20030;-61
2022/10/23 04:57:07;;;;;;;9.43;8.82;;;;;;;;;;4994710;28;20030;-60
2022/10/23 04:59:33;;;;;;;9.52;8.93;;;;;;;;;;4993310;28;20041;-61
2022/10/23 05:01:58;;;;;;;10.05;9.35;;;;;;;;;;4996064;28;20053;-61
2022/10/23 05:04:24;;;;;;;9.93;9.13;;;;;;;;;;4996501;28;20054;-60
2022/10/23 05:06:49;;;;;;;10.13;9.43;;;;;;;;;;4997604;28;20186;-60
2022/10/23 05:09:14;;;;;;;9.27;8.68;;;;;;;;;;4995050;28;20061;-60
2022/10/23 05:11:40;;;;;;;9.50;8.90;;;;;;;;;;4995523;28;20038;-60
2022/10/23 05:14:05;;;;;;;10.15;9.52;;;;;;;;;;4994052;28;20117;-60
2022/10/23 05:16:45;;;;;;;9.75;9.15;;;;;;;;;;4994659;28;20044;-59
2022/10/23 05:19:18;;;;;;;9.80;9.20;;;;;;;;;;4995784;28;20128;-60
2022/10/23 05:21:44;;;;;;;9.57;8.88;;;;;;;;;;4994621;28;20026;-61
2022/10/23 05:24:10;;;;;;;10.43;9.73;;;;;;;;;;4995495;28;20030;-60
2022/10/23 05:26:35;;;;;;;9.38;8.77;;;;;;;;;;4994314;28;20038;-60
2022/10/23 05:29:01;;;;;;;10.07;9.27;;;;;;;;;;4995645;28;20030;-60
2022/10/23 05:31:26;;;;;;;10.15;9.55;;;;;;;;;;4994958;28;20129;-61
2022/10/23 05:33:54;;;;;;;9.93;9.32;;;;;;;;;;4994345;28;20223;-60
2022/10/23 05:36:20;;;;;;;9.23;8.63;;;;;;;;;;4993606;28;20488;-60
2022/10/23 05:38:46;;;;;;;9.68;8.90;;;;;;;;;;4991544;28;20083;-60
2022/10/23 05:41:11;;;;;;;9.30;8.70;;;;;;;;;;4997033;28;20039;-61
2022/10/23 05:43:37;;;;;;;10.20;9.38;;;;;;;;;;4992505;28;20473;-61
2022/10/23 05:46:05;;;;;;;9.18;8.57;;;;;;;;;;4990067;28;20038;-60
2022/10/23 05:48:32;;;;;;;9.32;8.52;;;;;;;;;;4993638;28;20415;-60
2022/10/23 05:51:08;;;;;;;9.52;8.85;;;;;;;;;;4994231;28;20038;-60
2022/10/23 05:53:34;;;;;;;9.10;8.50;;;;;;;;;;4991221;28;20045;-61
2022/10/23 05:56:04;;;;;;;9.60;9.00;;;;;;;;;;5026087;28;20022;-60
2022/10/23 05:58:30;;;;;;;9.25;8.65;;;;;;;;;;4992668;28;20031;-60
2022/10/23 06:00:55;;;;;;;9.55;8.95;;;;;;;;;;4993109;28;20033;-60
2022/10/23 06:03:20;;;;;;;9.68;9.07;;;;;;;;;;4994513;28;20025;-60
2022/10/23 06:05:50;;;;;;;8.52;8.02;;;;;;;;;;4996207;28;20034;-60
2022/10/23 06:08:15;;;;;;;9.07;8.48;;;;;;;;;;4994236;28;20038;-60
2022/10/23 06:10:41;;;;;;;8.70;8.13;;;;;;;;;;4992284;28;20044;-60
2022/10/23 06:13:06;;;;;;;9.05;8.45;;;;;;;;;;4997242;28;20045;-60
2022/10/23 06:15:32;;;;;;;10.85;10.15;;;;;;;;;;4996322;28;20030;-60
2022/10/23 06:18:02;;;;;;;10.13;9.52;;;;;;;;;;4995897;28;20041;-61
2022/10/23 06:20:27;;;;;;;9.90;9.00;;;;;;;;;;4994872;28;20034;-62
2022/10/23 06:22:52;;;;;;;9.73;9.13;;;;;;;;;;4992664;28;20034;-62
2022/10/23 06:25:18;;;;;;;10.65;9.95;;;;;;;;;;4994326;28;20073;-62
2022/10/23 06:27:43;;;;;;;9.57;8.98;;;;;;;;;;4995354;28;20526;-61
2022/10/23 06:30:09;;;;;;;9.18;8.57;;;;;;;;;;4993669;28;20053;-62
2022/10/23 06:32:35;;;;;;;11.45;9.32;;;;;;;;;;4995159;28;20030;-61
2022/10/23 06:35:00;;;;;;;10.80;9.95;;;;;;;;;;5000091;28;20129;-62
2022/10/23 06:37:25;;;;;;;9.40;8.80;;;;;;;;;;4999427;28;20028;-62
2022/10/23 06:39:51;;;;;;;10.02;9.43;;;;;;;;;;5001087;28;20026;-64
2022/10/23 06:42:16;;;;;;;10.32;9.63;;;;;;;;;;4997600;28;20037;-62
2022/10/23 06:44:41;;;;;;;10.20;9.57;;;;;;;;;;4998483;28;20510;-65
2022/10/23 06:47:09;;;;;;;9.57;8.98;;;;;;;;;;4997827;28;20536;-63
2022/10/23 06:49:34;;;;;;;10.48;9.68;;;;;;;;;;5003732;28;20057;-63
2022/10/23 06:52:00;;;;;;;9.45;8.85;;;;;;;;;;4995349;28;20345;-63
2022/10/23 06:54:25;;;;;;;9.68;9.07;;;;;;;;;;4997430;28;20402;-63
2022/10/23 06:56:51;;;;;;;12.38;11.32;;;;;;;;;;4996354;28;20133;-61
2022/10/23 06:59:16;;;;;;;9.70;9.05;;;;;;;;;;4997216;28;20034;-61
2022/10/23 07:01:41;;;;;;;10.38;9.68;;;;;;;;;;4995948;28;20072;-61
2022/10/23 07:04:07;;;;;;;10.30;9.60;;;;;;;;;;4997948;28;20820;-62
2022/10/23 07:06:32;;;;;;;12.05;11.25;;;;;;;;;;4998157;28;20116;-62
2022/10/23 07:08:58;;;;;;;11.90;10.95;;;;;;;;;;4997717;28;20507;-62
2022/10/23 07:11:24;;;;;;;12.40;11.57;;;;;;;;;;4997766;28;20440;-62
2022/10/23 07:13:49;;;;;;;9.40;8.80;;;;;;;;;;4998866;28;20023;-62
2022/10/23 07:16:17;;;;;;;11.02;10.10;;;;;;;;;;4994320;28;20298;-62
2022/10/23 07:18:43;;;;;;;10.80;10.10;;;;;;;;;;4997379;28;20026;-62
2022/10/23 07:21:09;;;;;;;13.15;10.90;;;;;;;;;;4996352;28;20026;-62
2022/10/23 07:23:34;;;;;;;10.55;9.85;;;;;;;;;;4999279;28;20042;-63
2022/10/23 07:26:09;;;;;;;10.80;10.10;;;;;;;;;;4995788;28;20464;-63
2022/10/23 07:28:34;;;;;;;11.50;10.80;;;;;;;;;;5003725;28;20041;-62
2022/10/23 07:31:00;;;;;;;11.82;11.05;;;;;;;;;;4994979;28;20035;-62
2022/10/23 07:33:25;;;;;;;11.27;10.57;;;;;;;;;;4994615;28;20121;-62
2022/10/23 07:35:51;;;;;;;11.52;10.75;;;;;;;;;;4997473;28;20042;-62
2022/10/23 07:38:16;;;;;;;12.10;11.40;;;;;;;;;;5010881;28;20049;-62
2022/10/23 07:40:43;;;;;;;12.55;11.75;;;;;;;;;;4994953;28;20022;-62
2022/10/23 07:43:08;;;;;;;13.20;12.35;;;;;;;;;;4993048;28;20038;-62
2022/10/23 07:45:33;;;;;;;12.30;11.60;;;;;;;;;;4996853;28;20088;-62
2022/10/23 07:47:59;;;;;;;12.18;11.38;;;;;;;;;;4995764;28;20080;-62
2022/10/23 07:50:24;;;;;;;12.77;12.00;;;;;;;;;;4994509;28;20061;-62
2022/10/23 07:52:50;;;;;;;13.90;13.10;;;;;;;;;;4995416;28;20388;-62
2022/10/23 07:55:15;;;;;;;12.77;11.88;;;;;;;;;;4993298;28;20446;-62
2022/10/23 07:57:40;;;;;;;12.45;11.75;;;;;;;;;;4994721;28;20391;-62
2022/10/23 08:00:06;;;;;;;13.15;12.35;;;;;;;;;;4995424;28;20459;-61
2022/10/23 08:02:32;;;;;;;12.48;11.77;;;;;;;;;;4992691;28;20034;-62
2022/10/23 08:04:57;;;;;;;12.98;12.18;;;;;;;;;;4993933;28;20026;-62
2022/10/23 08:07:22;;;;;;;11.13;10.43;;;;;;;;;;4994328;28;20034;-62
2022/10/23 08:09:48;;;;;;;12.20;10.98;;;;;;;;;;4998159;28;20360;-62
2022/10/23 08:12:13;;;;;;;11.25;10.35;;;;;;;;;;4991802;28;20026;-62
2022/10/23 08:14:38;;;;;;;10.85;10.15;;;;;;;;;;4991437;28;20030;-63
2022/10/23 08:17:04;;;;;;;11.30;10.40;;;;;;;;;;4994564;28;20077;-62
2022/10/23 08:19:29;;;;;;;10.88;10.18;;;;;;;;;;4993805;28;20034;-62
2022/10/23 08:21:56;;;;;;;10.52;9.82;;;;;;;;;;4994385;28;20037;-62
2022/10/23 08:24:22;;;;;;;11.07;10.27;;;;;;;;;;4993215;28;20425;-62
2022/10/23 08:26:48;;;;;;;9.88;9.27;;;;;;;;;;4994954;28;20046;-62
2022/10/23 08:29:14;;;;;;;9.02;8.43;;;;;;;;;;4993422;28;20119;-62
2022/10/23 08:31:39;;;;;;;9.50;8.90;;;;;;;;;;4994391;28;20527;-62
2022/10/23 08:34:05;;;;;;;9.40;8.80;;;;;;;;;;4992330;28;20428;-62
2022/10/23 08:36:30;;;;;;;9.80;9.10;;;;;;;;;;4993742;28;20089;-62
2022/10/23 08:38:57;;;;;;;9.13;8.52;;;;;;;;;;4993404;28;20459;-62
2022/10/23 08:41:33;;;;;;;9.35;8.75;;;;;;;;;;4998872;28;20036;-62
2022/10/23 08:44:07;;;;;;;9.18;8.50;;;;;;;;;;4992810;28;20034;-62
2022/10/23 08:46:38;;;;;;;8.95;8.35;;;;;;;;;;4996044;28;20026;-62
2022/10/23 08:49:16;;;;;;;9.93;9.32;;;;;;;;;;4996990;28;20030;-62
2022/10/23 08:51:45;;;;;;;9.23;8.63;;;;;;;;;;5000949;28;20022;-62
2022/10/23 08:54:19;;;;;;;9.55;8.95;;;;;;;;;;4992917;28;20038;-62
2022/10/23 08:56:51;;;;;;;8.98;8.38;;;;;;;;;;4996652;28;20338;-62
2022/10/23 08:59:27;;;;;;;8.43;7.88;;;;;;;;;;5029509;28;20099;-62
2022/10/23 09:02:00;;;;;;;8.43;7.82;;;;;;;;;;4992078;28;20033;-62
2022/10/23 09:04:26;;;;;;;9.13;8.43;;;;;;;;;;4992608;28;20402;-62
2022/10/23 09:07:14;;;;;;;7.95;7.45;;;;;;;;;;4993124;28;20037;-61
2022/10/23 09:10:18;;;;;;;8.60;8.05;;;;;;;;;;4994184;28;20423;-61
2022/10/23 09:12:43;;;;;;;8.57;8.02;;;;;;;;;;4992231;28;20029;-61
2022/10/23 09:15:38;;;;;;;8.40;7.85;;;;;;;;;;4995274;28;20041;-61
2022/10/23 09:18:23;;;;;;;7.65;7.15;;;;;;;;;;4996022;28;20061;-61
2022/10/23 09:20:51;;;;;;;7.80;7.30;;;;;;;;;;4991687;28;20480;-61
2022/10/23 09:23:19;;;;;;;8.52;7.93;;;;;;;;;;4995484;28;20030;-62
2022/10/23 09:25:46;;;;;;;8.13;7.47;;;;;;;;;;4995591;28;20030;-62
2022/10/23 09:28:21;;;;;;;8.32;7.72;;;;;;;;;;4992781;28;20037;-62
2022/10/23 09:30:48;;;;;;;8.02;7.53;;;;;;;;;;4991214;28;20040;-62
2022/10/23 09:33:24;;;;;;;9.05;8.35;;;;;;;;;;4991771;28;20356;-62
2022/10/23 09:36:02;;;;;;;7.60;7.10;;;;;;;;;;4992968;28;20129;-62
2022/10/23 09:38:34;;;;;;;7.90;7.40;;;;;;;;;;4993820;28;20329;-62
2022/10/23 09:41:14;;;;;;;7.65;7.15;;;;;;;;;;4993309;28;20097;-61
2022/10/23 09:43:40;;;;;;;7.53;7.03;;;;;;;;;;4993704;28;20809;-62
2022/10/23 09:46:06;;;;;;;8.20;7.60;;;;;;;;;;4994099;28;20069;-62
2022/10/23 09:48:33;;;;;;;9.05;8.35;;;;;;;;;;5010138;28;20058;-62
2022/10/23 09:51:13;;;;;;;8.70;7.90;;;;;;;;;;4995544;28;20042;-62
2022/10/23 09:53:52;;;;;;;8.48;7.88;;;;;;;;;;4993065;28;20415;-61
2022/10/23 09:56:38;;;;;;;8.02;7.53;;;;;;;;;;4994793;28;20109;-61
2022/10/23 09:59:10;;;;;;;8.20;7.60;;;;;;;;;;4999990;28;20120;-61
2022/10/23 10:01:46;;;;;;;7.90;7.40;;;;;;;;;;4995444;28;20718;-61
2022/10/23 10:04:11;;;;;;;7.30;6.80;;;;;;;;;;4993345;28;20042;-61
2022/10/23 10:06:36;;;;;;;8.48;7.88;;;;;;;;;;4992621;28;20037;-61
2022/10/23 10:09:13;;;;;;;9.05;8.35;;;;;;;;;;5001455;28;20037;-61
2022/10/23 10:11:44;;;;;;;7.72;7.22;;;;;;;;;;5001997;28;20455;-62
2022/10/23 10:14:16;;;;;;;7.57;7.07;;;;;;;;;;4998000;28;20148;-61
2022/10/23 10:16:57;;;;;;;7.72;7.22;;;;;;;;;;4997889;28;20092;-61
2022/10/23 10:19:29;;;;;;;;;;;;;;;;;;4998125;28;20042;-62
2022/10/23 10:22:12;;;;;;;8.32;7.72;;;;;;;;;;4999898;28;19983;-62
2022/10/23 10:24:45;;;;;;;7.47;6.97;;;;;;;;;;5014265;28;20026;-62
2022/10/23 10:27:19;;;;;;;8.70;8.10;;;;;;;;;;4996306;28;20141;-62
2022/10/23 10:30:09;;;;;;;8.32;7.70;;;;;;;;;;5000031;28;20188;-63
2022/10/23 10:32:44;;;;;;;8.50;7.93;;;;;;;;;;4997551;28;20034;-63
2022/10/23 10:35:09;;;;;;;7.45;6.95;;;;;;;;;;4997729;28;20030;-64
2022/10/23 10:37:54;;;;;;;7.95;7.45;;;;;;;;;;5000125;28;20034;-64
2022/10/23 10:40:40;;;;;;;8.02;7.53;;;;;;;;;;4998951;28;20060;-63
2022/10/23 10:43:08;;;;;;;8.63;8.02;;;;;;;;;;5000138;28;20164;-61
2022/10/23 10:45:40;;;;;;;8.93;8.15;;;;;;;;;;4999536;28;20041;-61
2022/10/23 10:48:44;;;;;;;8.27;7.75;;;;;;;;;;4997638;28;20122;-63
2022/10/23 10:51:28;;;;;;;8.50;7.78;;;;;;;;;;4995634;28;20049;-63
2022/10/23 10:54:02;;;;;;;7.78;7.28;;;;;;;;;;4999384;28;20034;-63
2022/10/23 10:56:31;;;;;;;8.88;8.27;;;;;;;;;;5001238;28;20030;-62
2022/10/23 10:59:01;;;;;;;8.75;8.15;;;;;;;;;;4997733;28;20049;-62
2022/10/23 11:01:41;;;;;;;9.57;8.85;;;;;;;;;;4994508;28;20112;-62
2022/10/23 11:04:44;;;;;;;9.32;8.63;;;;;;;;;;4995494;28;20109;-63
2022/10/23 11:07:14;;;;;;;9.00;8.35;;;;;;;;;;4997525;28;20038;-63
2022/10/23 11:09:42;;;;;;;8.60;8.00;;;;;;;;;;4996932;28;20030;-63
2022/10/23 11:12:18;;;;;;;7.93;7.43;;;;;;;;;;4996288;28;20510;-62
2022/10/23 11:14:45;;;;;;;7.60;7.10;;;;;;;;;;4995457;28;20099;-61
2022/10/23 11:17:17;;;;;;;7.85;7.35;;;;;;;;;;4998689;28;20040;-62
2022/10/23 11:19:48;;;;;;;7.97;7.47;;;;;;;;;;4994870;28;20091;-62
2022/10/23 11:22:29;;;;;;;8.25;7.65;;;;;;;;;;5007808;28;20531;-61
2022/10/23 11:25:11;;;;;;;8.10;7.55;;;;;;;;;;4996755;28;20034;-62
2022/10/23 11:27:36;;;;;;;9.57;8.88;;;;;;;;;;4994952;28;20080;-61
2022/10/23 11:30:17;;;;;;;9.13;8.43;;;;;;;;;;4990611;28;20484;-62
2022/10/23 11:33:04;;;;;;;9.70;9.10;;;;;;;;;;4996057;28;20354;-62
2022/10/23 11:35:52;;;;;;;9.27;8.57;;;;;;;;;;5010004;28;20379;-61
2022/10/23 11:38:28;;;;;;;9.80;9.20;;;;;;;;;;4994564;28;20464;-63
2022/10/23 11:40:57;;;;;;;9.60;9.00;;;;;;;;;;5030416;28;20044;-64
2022/10/23 11:43:45;;;;;;;11.57;10.77;;;;;;;;;;4995343;28;20042;-65
2022/10/23 11:46:24;;;;;;;17.58;16.58;;;;;;;;;;4995232;28;20025;-63
2022/10/23 11:48:51;;;;;;;16.88;15.88;;;;;;;;;;4996746;28;20045;-62
2022/10/23 11:51:28;;;;;;;19.10;18.00;;;;;;;;;;4996845;28;20106;-63
2022/10/23 11:54:09;;;;;;;17.77;16.67;;;;;;;;;;4996451;28;20079;-63
2022/10/23 11:56:35;;;;;;;19.23;18.13;;;;;;;;;;4993918;28;20502;-63
2022/10/23 11:59:18;;;;;;;13.13;12.32;;;;;;;;;;4993647;28;20053;-63
2022/10/23 12:01:44;;;;;;;16.60;15.70;;;;;;;;;;4997578;28;20433;-63
2022/10/23 12:04:12;;;;;;;24.48;18.80;;;;;;;;;;4996523;28;20165;-63
2022/10/23 12:06:40;;;;;;;20.33;19.23;;;;;;;;;;4995788;28;20490;-63
2022/10/23 12:09:21;;;;;;;37.08;35.17;;;;;;;;;;4994107;28;20033;-63
2022/10/23 12:11:47;;;;;;;;;;;;;;;;;;4997247;28;20416;-64
2022/10/23 12:14:34;;;;;;;33.55;31.80;;;;;;;;;;4996015;28;19913;-62
2022/10/23 12:17:00;;;;;;;37.63;35.70;;;;;;;;;;4995804;28;20026;-62
2022/10/23 12:19:29;;;;;;;33.40;31.60;;;;;;;;;;4992733;28;20022;-63
2022/10/23 12:21:59;;;;;;;34.75;32.95;;;;;;;;;;4992880;28;20038;-63
2022/10/23 12:24:40;;;;;;;29.08;27.58;;;;;;;;;;4996505;28;20034;-63
2022/10/23 12:27:12;;;;;;;36.58;34.67;;;;;;;;;;4995839;28;20125;-63
2022/10/23 12:30:12;;;;;;;42.33;40.17;;;;;;;;;;4994934;28;20033;-63
2022/10/23 12:32:43;;;;;;;;;;;;;;;;;;4999135;28;20048;-63
2022/10/23 12:35:47;;;;;;;28.40;26.90;;;;;;;;;;4996078;28;19913;-63
2022/10/23 12:38:31;;;;;;;30.73;29.10;;;;;;;;;;4992947;28;20022;-62
2022/10/23 12:41:19;;;;;;;39.30;37.20;;;;;;;;;;4991269;28;20034;-62
2022/10/23 12:43:51;;;;;;;40.30;38.22;;;;;;;;;;4993161;28;20559;-63
2022/10/23 12:46:25;;;;;;;35.55;33.67;;;;;;;;;;4994484;28;20425;-63
2022/10/23 12:48:52;;;;;;;30.77;29.08;;;;;;;;;;4990871;28;20120;-63
2022/10/23 12:51:38;;;;;;;30.88;29.25;;;;;;;;;;4992860;28;20061;-63
2022/10/23 12:54:14;;;;;;;40.60;38.53;;;;;;;;;;4995642;28;20060;-63
2022/10/23 12:56:40;;;;;;;35.20;33.40;;;;;;;;;;4998103;28;20032;-62
2022/10/23 12:59:14;;;;;;;37.83;35.10;;;;;;;;;;4995444;28;20375;-62
2022/10/23 13:01:40;;;;;;;33.63;31.88;;;;;;;;;;4995145;28;20040;-62
2022/10/23 13:04:24;;;;;;;35.35;33.55;;;;;;;;;;4996871;28;20444;-62
2022/10/23 13:06:51;;;;;;;32.97;31.27;;;;;;;;;;4994566;28;20518;-62
2022/10/23 13:09:28;;;;;;;43.33;41.13;;;;;;;;;;4992279;28;20030;-62
2022/10/23 13:11:54;;;;;;;35.45;33.55;;;;;;;;;;4992059;28;20629;-62
2022/10/23 13:14:34;;;;;;;39.58;37.58;;;;;;;;;;4995516;28;20519;-62
2022/10/23 13:17:05;;;;;;;32.08;30.38;;;;;;;;;;4994413;28;20555;-62
2022/10/23 13:19:32;;;;;;;30.48;28.88;;;;;;;;;;4991786;28;20105;-62
2022/10/23 13:21:58;;;;;;;33.22;31.52;;;;;;;;;;4992286;28;20046;-63
2022/10/23 13:24:27;;;;;;;35.88;33.97;;;;;;;;;;4995477;28;20333;-63
2022/10/23 13:26:53;;;;;;;32.25;30.58;;;;;;;;;;4989789;28;20029;-63
2022/10/23 13:29:30;;;;;;;22.08;20.88;;;;;;;;;;4990406;28;20044;-62
2022/10/23 13:31:56;;;;;;;28.83;27.33;;;;;;;;;;4995911;28;20759;-63
2022/10/23 13:34:25;;;;;;;21.27;20.08;;;;;;;;;;4990626;28;20038;-63
2022/10/23 13:36:55;;;;;;;18.33;17.33;;;;;;;;;;4993392;28;20028;-63
2022/10/23 13:39:24;;;;;;;23.23;21.92;;;;;;;;;;4997542;28;20034;-63
2022/10/23 13:41:49;;;;;;;24.40;22.80;;;;;;;;;;4994126;28;20129;-63
2022/10/23 13:44:18;;;;;;;23.65;22.38;;;;;;;;;;4997169;28;20163;-63
2022/10/23 13:46:44;;;;;;;21.42;20.25;;;;;;;;;;4997825;28;20468;-62
2022/10/23 13:49:09;;;;;;;23.20;21.98;;;;;;;;;;5000877;28;20126;-62
2022/10/23 13:51:41;;;;;;;26.00;24.60;;;;;;;;;;5000055;28;20037;-62
2022/10/23 13:54:13;;;;;;;31.73;30.08;;;;;;;;;;4999675;28;20461;-62
2022/10/23 13:56:39;;;;;;;34.88;33.08;;;;;;;;;;5010573;28;20030;-62
2022/10/23 13:59:04;;;;;;;27.05;25.58;;;;;;;;;;4997540;28;20341;-62
2022/10/23 14:01:34;;;;;;;29.30;27.80;;;;;;;;;;5000248;28;20034;-62
2022/10/23 14:04:02;;;;;;;31.23;29.48;;;;;;;;;;5000619;28;20037;-62
2022/10/23 14:06:28;;;;;;;29.58;28.05;;;;;;;;;;4994625;28;20035;-63
2022/10/23 14:08:53;;;;;;;31.85;30.17;;;;;;;;;;4998087;28;20049;-63
2022/10/23 14:11:19;;;;;;;39.67;37.65;;;;;;;;;;4997408;28;20100;-63
2022/10/23 14:13:45;;;;;;;35.38;33.55;;;;;;;;;;5000397;28;20030;-63
2022/10/23 14:16:12;;;;;;;33.47;31.75;;;;;;;;;;4999323;28;20018;-63
2022/10/23 14:18:38;;;;;;;32.33;30.63;;;;;;;;;;4998248;28;20290;-63
2022/10/23 14:21:05;;;;;;;37.10;35.20;;;;;;;;;;4998306;28;20346;-63
2022/10/23 14:23:30;;;;;;;30.02;28.42;;;;;;;;;;4997925;28;20042;-63
2022/10/23 14:26:16;;;;;;;37.22;35.22;;;;;;;;;;5004287;28;20056;-63
2022/10/23 14:28:42;;;;;;;31.48;29.83;;;;;;;;;;4996833;28;20026;-63
2022/10/23 14:31:16;;;;;;;34.38;32.63;;;;;;;;;;4997245;28;20450;-63
2022/10/23 14:33:42;;;;;;;38.17;36.17;;;;;;;;;;5000053;28;20064;-63
2022/10/23 14:36:08;;;;;;;36.47;34.47;;;;;;;;;;4995086;28;20058;-63
2022/10/23 14:38:34;;;;;;;38.22;36.22;;;;;;;;;;4998476;28;20073;-63
2022/10/23 14:40:59;;;;;;;35.88;33.97;;;;;;;;;;4996379;28;20085;-63
2022/10/23 14:43:25;;;;;;;38.65;36.65;;;;;;;;;;4995662;28;20052;-63
2022/10/23 14:45:50;;;;;;;38.80;36.72;;;;;;;;;;4997663;28;20441;-63
2022/10/23 14:48:16;;;;;;;38.85;36.85;;;;;;;;;;4999292;28;20085;-63
2022/10/23 14:50:44;;;;;;;30.42;28.83;;;;;;;;;;4996302;28;20460;-63
2022/10/23 14:53:09;;;;;;;24.55;23.25;;;;;;;;;;4997137;28;20053;-63